TAF EPSY 082330Z 0900/0909 VRB03KT CAVOK PROB40 TEMPO 0900/0904 4000 BR=